Time;durP1;ratioP1;P1;durP2;ratioP2;P2;SDS_P1;SDS_P2;PMS_P1;PMS_P2;Temp;Humidity;BMP_temperature;BMP_pressure;BME280_temperature;BME280_humidity;BME280_pressure;Samples;Min_cycle;Max_cycle;Signal;HPM_P1;HPM_P2
2022/06/08 00:00:24;;;;;;;12.50;10.18;;;;;;;18.22;100.00;97836.58;1688972;83;28091;-87
2022/06/08 00:02:58;;;;;;;10.98;9.83;;;;;;;18.18;100.00;97830.47;1689862;84;28091;-91
2022/06/08 00:05:26;;;;;;;12.85;9.85;;;;;;;18.14;100.00;97823.86;1688601;83;28141;-88
2022/06/08 00:07:52;;;;;;;12.10;9.65;;;;;;;18.11;100.00;97821.04;1688304;83;28192;-90
2022/06/08 00:10:28;;;;;;;16.97;9.20;;;;;;;18.02;100.00;97805.34;1689226;83;28087;-90
2022/06/08 00:12:55;;;;;;;9.15;8.20;;;;;;;17.88;100.00;97796.29;1688991;83;28075;-88
2022/06/08 00:15:22;;;;;;;10.90;9.13;;;;;;;17.74;100.00;97798.28;1690071;83;28190;-86
2022/06/08 00:17:48;;;;;;;11.40;9.75;;;;;;;17.59;100.00;97796.78;1689177;83;28082;-87
2022/06/08 00:20:15;;;;;;;12.43;9.88;;;;;;;17.57;100.00;97794.30;1691599;83;28146;-88
2022/06/08 00:22:53;;;;;;;11.15;9.35;;;;;;;17.61;100.00;97796.16;1690100;83;28097;-90
2022/06/08 00:25:20;;;;;;;10.53;9.00;;;;;;;17.57;100.00;97792.97;1689768;83;27991;-91
2022/06/08 00:27:47;;;;;;;10.55;9.30;;;;;;;17.54;100.00;97788.52;1688123;83;28083;-90
2022/06/08 00:30:14;;;;;;;12.82;9.10;;;;;;;17.62;100.00;97791.70;1689434;83;28098;-86
2022/06/08 00:32:40;;;;;;;10.98;8.75;;;;;;;17.73;100.00;97786.06;1689248;83;28215;-86
2022/06/08 00:35:08;;;;;;;12.65;9.65;;;;;;;17.74;100.00;97783.23;1690141;83;28141;-86
2022/06/08 00:37:37;;;;;;;10.48;8.60;;;;;;;17.80;100.00;97779.91;1690398;83;28150;-86
2022/06/08 00:40:07;;;;;;;11.97;8.70;;;;;;;17.78;100.00;97776.59;1688247;83;28095;-88
2022/06/08 00:42:37;;;;;;;10.15;8.40;;;;;;;17.75;100.00;97778.77;1690161;83;28130;-86
2022/06/08 00:45:07;;;;;;;10.72;8.80;;;;;;;17.68;100.00;97782.57;1690888;83;28099;-90
2022/06/08 00:47:37;;;;;;;11.38;8.80;;;;;;;17.62;100.00;97777.15;1690287;83;28094;-90
2022/06/08 00:50:07;;;;;;;10.60;8.83;;;;;;;17.67;100.00;97774.33;1671906;83;28220;-91
2022/06/08 00:52:34;;;;;;;11.12;8.73;;;;;;;17.65;100.00;97778.13;1688499;83;28083;-88
2022/06/08 00:55:06;;;;;;;13.83;8.70;;;;;;;17.63;100.00;97775.63;1688933;83;28078;-88
2022/06/08 00:57:44;;;;;;;13.78;8.53;;;;;;;17.53;100.00;97772.31;1690333;83;28114;-87
2022/06/08 01:00:14;;;;;;;12.40;9.28;;;;;;;17.48;100.00;97764.05;1688523;83;28062;-89
2022/06/08 01:02:44;;;;;;;11.22;9.13;;;;;;;17.46;100.00;97762.05;1688266;83;27999;-88
2022/06/08 01:05:24;;;;;;;13.58;9.55;;;;;;;17.44;100.00;97753.48;1691246;83;28106;-87
2022/06/08 01:08:00;;;;;;;12.45;9.33;;;;;;;17.47;100.00;97761.06;1690305;83;28031;-87
2022/06/08 01:10:30;;;;;;;10.08;8.45;;;;;;;17.51;100.00;97761.09;1689658;83;28176;-88
2022/06/08 01:13:01;;;;;;;13.20;8.83;;;;;;;17.58;100.00;97763.38;1690253;83;28059;-90
2022/06/08 01:15:28;;;;;;;10.60;9.18;;;;;;;17.69;100.00;97759.58;1690275;83;28074;-86
2022/06/08 01:17:56;;;;;;;10.68;8.88;;;;;;;17.72;100.00;97752.64;1690047;83;28094;-90
2022/06/08 01:20:22;;;;;;;12.78;9.53;;;;;;;17.68;100.00;97752.63;1689386;83;28114;-85
2022/06/08 01:22:52;;;;;;;10.55;9.10;;;;;;;17.66;100.00;97749.34;1689866;83;28086;-85
2022/06/08 01:25:18;;;;;;;12.15;9.03;;;;;;;17.63;100.00;97743.88;1691941;83;28058;-89
2022/06/08 01:28:08;;;;;;;10.28;9.15;;;;;;;17.62;100.00;97738.78;1689378;83;28168;-88
2022/06/08 01:30:50;;;;;;;13.18;10.28;;;;;;;17.54;100.00;97740.41;1691997;83;28097;-88
2022/06/08 01:33:38;;;;;;;13.18;9.65;;;;;;;17.48;100.00;97742.88;1652741;85;28136;-89
2022/06/08 01:36:13;;;;;;;14.10;9.28;;;;;;;17.46;100.00;97732.95;1653580;85;28117;-88
2022/06/08 01:39:06;;;;;;;13.25;10.68;;;;;;;17.51;100.00;97722.72;1668214;85;28074;-85
2022/06/08 01:41:51;;;;;;;11.90;10.00;;;;;;;17.46;100.00;97721.05;1646344;86;28156;-85
2022/06/08 01:44:31;;;;;;;13.53;9.35;;;;;;;17.42;100.00;97721.06;1666678;85;28077;-86
2022/06/08 01:47:20;;;;;;;12.35;10.40;;;;;;;17.33;100.00;97720.27;1628365;86;28107;-89
2022/06/08 01:50:11;;;;;;;13.28;10.30;;;;;;;17.26;100.00;97717.11;1628749;86;28112;-89
2022/06/08 01:52:47;;;;;;;12.00;9.33;;;;;;;17.27;100.00;97713.48;1534106;90;28096;-90
2022/06/08 01:55:23;;;;;;;15.60;10.20;;;;;;;17.24;100.00;97717.27;1613786;86;28120;-90
2022/06/08 01:58:11;;;;;;;16.55;10.93;;;;;;;17.24;100.00;97716.47;1596395;88;28096;-88
2022/06/08 02:00:41;;;;;;;13.30;10.23;;;;;;;17.23;100.00;97718.78;1655966;84;28109;-87
2022/06/08 02:03:20;;;;;;;12.00;10.43;;;;;;;17.35;100.00;97721.39;1654677;85;28066;-88
2022/06/08 02:06:06;;;;;;;14.13;10.53;;;;;;;17.35;100.00;97717.42;1654100;86;28199;-86
2022/06/08 02:08:36;;;;;;;14.60;11.75;;;;;;;17.42;100.00;97722.39;1654107;85;28167;-87
2022/06/08 02:11:15;;;;;;;13.68;10.85;;;;;;;17.51;100.00;97724.84;1621263;87;28214;-86
2022/06/08 02:13:51;;;;;;;15.32;10.55;;;;;;;17.58;100.00;97714.42;1623694;86;28086;-86
2022/06/08 02:16:37;;;;;;;12.35;10.35;;;;;;;17.76;100.00;97730.13;1653436;85;28253;-86
2022/06/08 02:19:16;;;;;;;14.78;10.95;;;;;;;17.86;100.00;97730.27;1655709;85;28118;-86
2022/06/08 02:21:49;;;;;;;12.98;10.50;;;;;;;17.89;100.00;97729.92;1652512;85;28196;-90
2022/06/08 02:24:22;;;;;;;12.15;9.78;;;;;;;17.97;100.00;97729.08;1655933;86;28065;-90
2022/06/08 02:26:58;;;;;;;15.15;11.00;;;;;;;17.97;100.00;97728.58;1650485;85;28164;-87
2022/06/08 02:29:30;;;;;;;13.18;10.53;;;;;;;17.91;100.00;97723.97;1655531;85;28209;-87
2022/06/08 02:34:50;;;;;;;17.77;10.68;;;;;;;18.09;100.00;97725.07;1682382;83;28132;-85
2022/06/08 02:37:25;;;;;;;17.65;11.78;;;;;;;18.20;100.00;97727.84;1693652;83;28099;-88
2022/06/08 02:40:06;;;;;;;15.85;12.63;;;;;;;18.19;100.00;97722.20;1664637;83;28089;-87
2022/06/08 02:42:54;;;;;;;16.55;12.35;;;;;;;18.24;100.00;97725.16;1678222;83;28143;-85
2022/06/08 02:45:24;;;;;;;15.98;12.33;;;;;;;18.28;100.00;97733.09;1689043;83;28127;-87
2022/06/08 02:47:53;;;;;;;15.43;13.05;;;;;;;18.29;100.00;97736.89;1696629;83;28103;-87
2022/06/08 02:50:23;;;;;;;17.10;11.93;;;;;;;18.36;100.00;97744.48;1686705;83;28165;-90
2022/06/08 02:52:55;;;;;;;20.50;13.15;;;;;;;18.36;100.00;97743.16;1618709;86;28143;-86
2022/06/08 02:55:25;;;;;;;14.98;12.43;;;;;;;18.33;100.00;97750.11;1637608;86;28093;-86
2022/06/08 02:58:08;;;;;;;18.35;13.38;;;;;;;18.27;100.00;97753.45;1628166;87;28082;-86
2022/06/08 03:00:47;;;;;;;15.95;12.78;;;;;;;18.22;100.00;97756.31;1693459;83;28068;-86
2022/06/08 03:03:23;;;;;;;17.90;13.25;;;;;;;18.17;100.00;97757.30;1685019;83;28070;-86
2022/06/08 03:05:56;;;;;;;18.10;13.75;;;;;;;18.12;100.00;97755.17;1688839;83;28116;-87
2022/06/08 03:08:32;;;;;;;19.35;13.08;;;;;;;18.05;100.00;97750.74;1682841;83;28200;-91
2022/06/08 03:11:01;;;;;;;15.83;12.75;;;;;;;17.96;100.00;97748.11;1678532;83;28067;-87
2022/06/08 03:13:36;;;;;;;18.67;12.47;;;;;;;17.88;100.00;97745.50;1686760;83;28057;-86
2022/06/08 03:16:05;;;;;;;17.75;13.38;;;;;;;17.79;100.00;97746.98;1684909;83;27999;-88
2022/06/08 03:18:32;;;;;;;19.62;13.98;;;;;;;17.80;100.00;97750.80;1686995;83;28088;-90
2022/06/08 03:21:01;;;;;;;16.87;13.60;;;;;;;17.87;100.00;97754.92;1694694;83;28094;-90
2022/06/08 03:23:29;;;;;;;16.48;12.47;;;;;;;17.88;100.00;97757.91;1682754;83;28089;-90
2022/06/08 03:25:59;;;;;;;18.45;14.03;;;;;;;17.86;100.00;97766.50;1693894;83;28115;-90
2022/06/08 03:28:25;;;;;;;19.07;14.13;;;;;;;17.81;100.00;97765.69;1687318;83;28138;-87
2022/06/08 03:30:54;;;;;;;17.95;13.60;;;;;;;17.77;100.00;97771.50;1691253;83;28013;-87
2022/06/08 03:33:21;;;;;;;19.85;14.18;;;;;;;17.70;100.00;97769.18;1686234;83;28092;-87
2022/06/08 03:35:47;;;;;;;17.87;14.28;;;;;;;17.72;100.00;97769.36;1676231;84;28159;-89
2022/06/08 03:38:13;;;;;;;17.48;13.60;;;;;;;17.69;100.00;97767.03;1676799;84;28100;-87
2022/06/08 03:40:42;;;;;;;18.67;14.83;;;;;;;17.58;100.00;97762.05;1676255;84;28044;-89
2022/06/08 03:43:11;;;;;;;18.95;14.00;;;;;;;17.45;100.00;97757.78;1674954;84;28073;-88
2022/06/08 03:45:41;;;;;;;16.05;12.47;;;;;;;17.38;100.00;97757.61;1676240;84;28081;-88
2022/06/08 03:48:08;;;;;;;14.33;11.88;;;;;;;17.28;100.00;97752.16;1674726;85;28073;-91
2022/06/08 03:50:35;;;;;;;16.52;12.03;;;;;;;17.20;100.00;97760.08;1674488;84;28145;-89
2022/06/08 03:53:04;;;;;;;16.45;12.60;;;;;;;17.24;100.00;97762.23;1676232;84;28066;-91
2022/06/08 03:55:37;;;;;;;16.60;11.57;;;;;;;17.34;100.00;97761.59;1676302;84;28076;-92
2022/06/08 03:58:05;;;;;;;13.75;11.22;;;;;;;17.39;100.00;97758.45;1676334;84;28021;-91
2022/06/08 04:00:33;;;;;;;14.33;10.72;;;;;;;17.27;100.00;97742.08;1676723;84;28108;-88
2022/06/08 04:03:03;;;;;;;10.53;8.55;;;;;;;17.09;100.00;97735.63;1676769;84;28132;-88
2022/06/08 04:05:29;;;;;;;12.53;9.48;;;;;;;16.91;100.00;97732.30;1674906;85;28173;-88
2022/06/08 04:07:56;;;;;;;12.60;10.63;;;;;;;16.75;100.00;97734.12;1684049;84;28202;-88
2022/06/08 04:10:22;;;;;;;11.93;9.35;;;;;;;16.65;100.00;97736.40;1675486;85;28092;-88
2022/06/08 04:12:49;;;;;;;11.90;9.68;;;;;;;16.59;100.00;97741.00;1673189;84;28099;-87
2022/06/08 04:15:41;;;;;;;12.60;9.93;;;;;;;16.58;100.00;97746.44;1673981;85;28140;-86
2022/06/08 04:17:44;;;;;;;13.28;10.65;;;;;;;16.55;100.00;97752.86;1675255;84;28181;-90
2022/06/08 04:20:11;;;;;;;12.43;10.88;;;;;;;16.72;100.00;97756.40;1675298;84;28147;-88
2022/06/08 04:22:37;;;;;;;12.07;10.20;;;;;;;16.91;100.00;97760.05;1672206;84;28159;-88
2022/06/08 04:25:04;;;;;;;14.13;9.63;;;;;;;17.04;100.00;97764.87;1673130;84;28106;-88
2022/06/08 04:27:30;;;;;;;13.88;10.93;;;;;;;17.12;100.00;97772.33;1674959;84;28100;-86
2022/06/08 04:29:56;;;;;;;11.65;9.88;;;;;;;17.21;100.00;97773.15;1674636;84;28127;-86
2022/06/08 04:32:23;;;;;;;13.48;10.72;;;;;;;17.31;100.00;97777.78;1674794;85;28176;-87
2022/06/08 04:34:52;;;;;;;12.00;9.75;;;;;;;17.28;100.00;97765.39;1674853;84;28526;-86
2022/06/08 04:37:21;;;;;;;12.68;10.82;;;;;;;17.32;100.00;97759.59;1671561;84;28158;-87
2022/06/08 04:39:47;;;;;;;14.05;10.40;;;;;;;17.36;100.00;97755.62;1672399;84;28192;-87
2022/06/08 04:42:14;;;;;;;13.22;10.10;;;;;;;17.33;100.00;97755.14;1673342;84;28168;-87
2022/06/08 04:44:43;;;;;;;13.80;9.58;;;;;;;17.28;100.00;97754.31;1674343;84;28113;-88
2022/06/08 04:47:19;;;;;;;14.23;10.70;;;;;;;17.25;100.00;97751.98;1674288;84;28128;-88
2022/06/08 04:49:48;;;;;;;14.03;11.08;;;;;;;17.21;100.00;97752.48;1674416;84;28128;-88
2022/06/08 04:52:14;;;;;;;13.28;10.45;;;;;;;17.11;100.00;97742.08;1673274;85;28140;-86
2022/06/08 04:54:40;;;;;;;13.72;11.10;;;;;;;16.97;100.00;97742.22;1674290;84;28268;-86
2022/06/08 04:57:09;;;;;;;14.63;12.00;;;;;;;16.87;100.00;97742.88;1673706;84;28080;-86
2022/06/08 04:59:41;;;;;;;15.35;11.63;;;;;;;16.84;100.00;97743.70;1671755;84;28162;-90
2022/06/08 05:02:08;;;;;;;14.30;11.93;;;;;;;16.84;100.00;97741.89;1671240;85;28138;-89
2022/06/08 05:04:35;;;;;;;13.83;10.43;;;;;;;16.87;100.00;97742.88;1675162;84;28083;-87
2022/06/08 05:07:01;;;;;;;16.73;12.58;;;;;;;16.87;100.00;97744.69;1675674;84;28096;-87
2022/06/08 05:09:29;;;;;;;16.10;12.25;;;;;;;16.82;100.00;97731.97;1676271;84;28102;-87
2022/06/08 05:11:56;;;;;;;16.70;12.73;;;;;;;16.77;100.00;97732.95;1676249;84;28152;-87
2022/06/08 05:14:22;;;;;;;15.63;12.28;;;;;;;16.72;100.00;97728.16;1676482;84;28144;-85
2022/06/08 05:16:54;;;;;;;18.02;13.72;;;;;;;16.67;100.00;97732.28;1676532;84;28104;-86
2022/06/08 05:19:22;;;;;;;18.60;13.70;;;;;;;16.68;100.00;97736.58;1665455;85;28012;-85
2022/06/08 05:21:55;;;;;;;14.65;12.18;;;;;;;16.65;100.00;97738.21;1676585;84;28111;-86
2022/06/08 05:24:22;;;;;;;14.50;11.18;;;;;;;16.61;100.00;97744.33;1674677;85;28105;-86
2022/06/08 05:26:48;;;;;;;14.83;11.53;;;;;;;16.60;100.00;97747.12;1675282;84;28101;-86
2022/06/08 05:29:14;;;;;;;15.45;12.10;;;;;;;16.66;100.00;97749.12;1676714;84;28156;-86
2022/06/08 05:31:40;;;;;;;16.23;11.55;;;;;;;16.67;100.00;97750.78;1673983;84;28087;-85
2022/06/08 05:34:07;;;;;;;12.58;9.98;;;;;;;16.66;100.00;97748.62;1682365;83;28075;-86
2022/06/08 05:36:37;;;;;;;16.52;12.25;;;;;;;16.66;100.00;97746.47;1699059;83;28168;-86
2022/06/08 05:39:03;;;;;;;18.52;12.13;;;;;;;16.60;100.00;97752.41;1699970;83;28106;-86
2022/06/08 05:41:30;;;;;;;16.00;11.70;;;;;;;16.58;100.00;97754.36;1687074;83;28206;-86
2022/06/08 05:44:01;;;;;;;16.87;12.25;;;;;;;16.54;100.00;97757.80;1695132;83;28152;-87
2022/06/08 05:46:27;;;;;;;14.73;11.20;;;;;;;16.53;100.00;97761.42;1690360;83;28132;-89
2022/06/08 05:48:54;;;;;;;17.45;12.15;;;;;;;16.58;100.00;97756.48;1688379;83;28026;-85
2022/06/08 05:51:20;;;;;;;15.35;11.33;;;;;;;16.58;100.00;97770.22;1693921;83;28014;-89
2022/06/08 05:53:47;;;;;;;16.70;12.28;;;;;;;16.60;100.00;97773.53;1692409;83;28081;-89
2022/06/08 05:56:13;;;;;;;14.53;11.38;;;;;;;16.69;100.00;97781.84;1699479;83;28099;-85
2022/06/08 05:58:39;;;;;;;17.25;12.43;;;;;;;16.73;100.00;97779.20;1688533;83;28088;-85
2022/06/08 06:01:06;;;;;;;15.45;12.18;;;;;;;16.69;100.00;97783.16;1697744;83;28538;-89
2022/06/08 06:03:35;;;;;;;15.70;12.18;;;;;;;16.73;100.00;97789.28;1701964;83;28194;-85
2022/06/08 06:06:02;;;;;;;15.95;11.65;;;;;;;16.84;100.00;97786.83;1692270;83;28284;-85
2022/06/08 06:08:30;;;;;;;16.70;12.20;;;;;;;16.98;100.00;97791.46;1699243;83;28061;-85
2022/06/08 06:10:56;;;;;;;16.50;12.18;;;;;;;16.98;100.00;97790.14;1699711;83;28170;-85
2022/06/08 06:13:22;;;;;;;15.15;11.33;;;;;;;17.10;100.00;97798.09;1703231;83;28017;-87
2022/06/08 06:15:49;;;;;;;16.07;11.75;;;;;;;17.20;100.00;97787.84;1698502;83;28076;-87
2022/06/08 06:18:16;;;;;;;16.17;10.75;;;;;;;17.11;100.00;97791.82;1702777;83;28133;-86
2022/06/08 06:20:42;;;;;;;12.98;10.60;;;;;;;17.09;100.00;97798.25;1699109;83;28103;-87
2022/06/08 06:23:11;;;;;;;15.23;11.45;;;;;;;17.06;100.00;97787.52;1690228;83;28107;-86
2022/06/08 06:25:40;;;;;;;15.10;10.98;;;;;;;17.09;100.00;97797.76;1700832;83;28119;-86
2022/06/08 06:28:06;;;;;;;17.15;11.53;;;;;;;17.13;100.00;97795.60;1695478;82;28134;-86
2022/06/08 06:30:34;;;;;;;13.98;10.68;;;;;;;17.08;100.00;97787.34;1679590;83;28108;-85
2022/06/08 06:33:01;;;;;;;15.45;11.80;;;;;;;17.11;100.00;97792.31;1705599;83;28019;-85
2022/06/08 06:35:29;;;;;;;15.90;10.35;;;;;;;17.26;100.00;97798.60;1689678;83;28179;-87
2022/06/08 06:37:56;;;;;;;13.28;10.25;;;;;;;17.28;100.00;97796.63;1685998;84;28147;-87
2022/06/08 06:40:22;;;;;;;12.10;9.68;;;;;;;17.37;100.00;97792.98;1685245;83;28101;-85
2022/06/08 06:42:49;;;;;;;14.63;9.83;;;;;;;17.39;100.00;97784.89;1683090;83;28072;-88
2022/06/08 06:45:21;;;;;;;10.95;9.28;;;;;;;17.41;100.00;97779.75;1689732;84;28117;-86
2022/06/08 06:47:47;;;;;;;12.47;9.70;;;;;;;17.37;100.00;97782.90;1685092;83;28069;-87
2022/06/08 06:50:16;;;;;;;11.28;9.00;;;;;;;17.37;100.00;97782.90;1690344;84;28085;-86
2022/06/08 06:52:44;;;;;;;11.20;9.03;;;;;;;17.40;100.00;97785.23;1689693;83;28002;-87
2022/06/08 06:55:18;;;;;;;13.22;9.08;;;;;;;17.47;100.00;97779.09;1684103;84;28028;-87
2022/06/08 06:57:44;;;;;;;11.63;8.60;;;;;;;17.47;100.00;97777.77;1681830;83;28027;-90
2022/06/08 07:00:16;;;;;;;11.20;8.95;;;;;;;17.57;100.00;97794.79;1683748;84;28101;-87
2022/06/08 07:02:43;;;;;;;10.95;9.15;;;;;;;17.72;100.00;97797.15;1683846;84;28068;-90
2022/06/08 07:05:25;;;;;;;10.63;8.53;;;;;;;17.79;100.00;97792.81;1642451;86;28102;-89
2022/06/08 07:07:52;;;;;;;11.25;8.08;;;;;;;17.86;100.00;97788.51;1635114;86;28102;-84
2022/06/08 07:10:19;;;;;;;10.35;8.78;;;;;;;17.84;100.00;97793.63;1642333;85;28062;-86
2022/06/08 07:12:45;;;;;;;9.85;7.87;;;;;;;17.78;100.00;97797.77;1619784;87;28078;-86
2022/06/08 07:15:17;;;;;;;9.75;7.53;;;;;;;17.75;100.00;97797.30;1685797;83;28034;-90
2022/06/08 07:17:43;;;;;;;;;;;;;;;17.73;100.00;97800.09;1689982;84;28065;-88
2022/06/08 07:20:11;;;;;;;11.73;8.43;;;;;;;17.75;100.00;97803.41;1685498;83;25999;-86
2022/06/08 07:22:37;;;;;;;9.60;7.92;;;;;;;17.77;100.00;97807.23;1683761;84;28136;-86
2022/06/08 07:25:07;;;;;;;10.60;7.87;;;;;;;17.77;100.00;97812.02;1689635;83;28104;-90
2022/06/08 07:27:35;;;;;;;9.98;7.65;;;;;;;17.76;100.00;97815.66;1688710;83;28058;-87
2022/06/08 07:30:06;;;;;;;8.78;7.28;;;;;;;17.71;100.00;97825.92;1688867;84;28194;-87
2022/06/08 07:32:33;;;;;;;8.05;6.97;;;;;;;17.79;100.00;97833.84;1682400;83;28112;-88
2022/06/08 07:35:00;;;;;;;8.60;7.65;;;;;;;17.82;100.00;97842.79;1688542;83;28113;-88
2022/06/08 07:37:27;;;;;;;9.73;7.95;;;;;;;17.81;100.00;97843.78;1699939;83;28094;-88
2022/06/08 07:39:53;;;;;;;10.28;7.47;;;;;;;17.87;100.00;97847.58;1698787;83;28088;-90
2022/06/08 07:42:19;;;;;;;9.10;7.40;;;;;;;17.89;100.00;97850.37;1691831;83;28076;-90
2022/06/08 07:44:46;;;;;;;9.68;7.60;;;;;;;17.85;100.00;97848.23;1696769;83;28123;-87
2022/06/08 07:47:12;;;;;;;8.63;7.10;;;;;;;17.80;100.00;97842.12;1699094;83;28103;-88
2022/06/08 07:49:49;;;;;;;9.15;7.08;;;;;;;17.69;100.00;97838.48;1698765;83;28142;-88
2022/06/08 07:52:13;;;;;;;8.55;6.80;;;;;;;17.56;100.00;97828.87;1697676;84;28072;-88
2022/06/08 07:54:42;;;;;;;8.68;7.05;;;;;;;17.43;100.00;97822.75;1698978;83;28109;-89
2022/06/08 07:57:14;;;;;;;8.63;7.12;;;;;;;17.35;100.00;97810.00;1698835;83;28439;-88
2022/06/08 07:59:41;;;;;;;9.45;6.97;;;;;;;17.26;100.00;97802.57;1697806;83;28072;-88
2022/06/08 08:02:08;;;;;;;9.90;8.05;;;;;;;17.25;100.00;97806.69;1695488;83;28095;-88
2022/06/08 08:04:35;;;;;;;10.35;7.60;;;;;;;17.23;100.00;97806.05;1698841;83;28098;-89
2022/06/08 08:07:02;;;;;;;9.83;7.80;;;;;;;17.19;100.00;97799.41;1698973;83;28098;-88
2022/06/08 08:09:33;;;;;;;10.15;7.37;;;;;;;17.19;100.00;97795.44;1695866;83;28171;-89
2022/06/08 08:11:56;;;;;;;9.93;8.13;;;;;;;17.18;100.00;97795.14;1699663;83;28158;-87
2022/06/08 08:14:24;;;;;;;11.05;7.97;;;;;;;17.18;100.00;97789.85;1695738;83;28021;-87
2022/06/08 08:16:51;;;;;;;10.08;7.58;;;;;;;17.19;100.00;97790.16;1696690;83;28091;-90
2022/06/08 08:19:20;;;;;;;14.25;10.93;;;;;;;17.17;100.00;97789.52;1695806;83;28048;-90
2022/06/08 08:21:47;;;;;;;12.60;9.83;;;;;;;17.14;100.00;97794.12;1671291;83;28110;-90
2022/06/08 08:24:15;;;;;;;10.68;8.35;;;;;;;17.14;100.00;97798.09;1694974;84;28088;-88
2022/06/08 08:26:44;;;;;;;8.95;8.05;;;;;;;17.15;100.00;97790.50;1694778;83;28134;-88
2022/06/08 08:29:11;;;;;;;10.30;8.05;;;;;;;17.17;100.00;97792.16;1697723;83;28135;-91
2022/06/08 08:31:38;;;;;;;11.00;7.72;;;;;;;17.12;100.00;97782.91;1694121;83;28103;-87
2022/06/08 08:34:05;;;;;;;9.20;7.35;;;;;;;17.14;100.00;97785.36;1693155;83;28061;-90
2022/06/08 08:36:39;;;;;;;8.48;6.75;;;;;;;17.11;100.00;97781.25;1694349;83;28059;-91
2022/06/08 08:39:06;;;;;;;9.05;7.10;;;;;;;17.13;100.00;97785.86;1647101;85;28056;-86
2022/06/08 08:44:42;;;;;;;15.63;6.28;;;;;;;17.11;100.00;97761.41;1640660;86;28035;-88
2022/06/08 08:47:15;;;;;;;7.92;5.80;;;;;;;17.14;100.00;97769.01;1625365;86;28201;-88
2022/06/08 08:49:48;;;;;;;6.92;5.87;;;;;;;17.17;100.00;97761.75;1683742;83;28162;-88
2022/06/08 08:52:24;;;;;;;9.25;6.62;;;;;;;17.17;100.00;97754.64;1687956;83;28104;-87
2022/06/08 08:54:59;;;;;;;6.05;5.45;;;;;;;17.14;100.00;97753.14;1642902;83;28083;-88
2022/06/08 08:57:38;;;;;;;7.00;5.83;;;;;;;17.18;100.00;97749.69;1650858;85;28133;-88
2022/06/08 09:00:14;;;;;;;8.03;5.95;;;;;;;17.18;100.00;97748.38;1685169;83;28113;-85
2022/06/08 09:05:28;;;;;;;5.40;4.90;;;;;;;17.16;100.00;97745.05;1688919;83;28009;-87
2022/06/08 09:07:56;;;;;;;6.10;5.50;;;;;;;17.17;100.00;97744.06;1678389;83;28089;-88
2022/06/08 09:10:24;;;;;;;6.00;4.95;;;;;;;17.24;100.00;97745.03;1674581;83;28185;-88
2022/06/08 09:12:52;;;;;;;6.00;5.40;;;;;;;17.28;100.00;97741.59;1684132;83;28008;-87
2022/06/08 09:15:38;;;;;;;5.80;5.20;;;;;;;17.33;100.00;97743.23;1689983;83;28102;-89
2022/06/08 09:18:05;;;;;;;6.03;5.03;;;;;;;17.39;100.00;97734.64;1678893;83;28084;-90
2022/06/08 09:20:37;;;;;;;5.70;4.28;;;;;;;17.48;100.00;97746.36;1646630;85;28147;-87
2022/06/08 09:23:38;;;;;;;4.87;4.12;;;;;;;17.56;100.00;97750.83;1693290;83;28158;-90
2022/06/08 09:26:18;;;;;;;5.58;4.62;;;;;;;17.61;100.00;97739.27;1681920;83;28012;-90
2022/06/08 09:28:46;;;;;;;5.03;4.53;;;;;;;17.66;100.00;97743.56;1677793;83;28091;-86
2022/06/08 09:31:28;;;;;;;5.85;4.00;;;;;;;17.72;100.00;97742.06;1681559;83;28035;-85
2022/06/08 09:34:07;;;;;;;4.72;4.03;;;;;;;17.71;100.00;97735.11;1685693;83;28040;-86
2022/06/08 09:36:33;;;;;;;6.60;5.10;;;;;;;17.66;100.00;97732.98;1689828;83;28115;-88
2022/06/08 09:39:00;;;;;;;6.10;4.80;;;;;;;17.66;100.00;97734.80;1688988;83;28089;-87
2022/06/08 09:41:42;;;;;;;6.97;5.70;;;;;;;17.63;100.00;97736.44;1693303;83;28121;-87
2022/06/08 09:44:18;;;;;;;6.35;5.58;;;;;;;17.64;100.00;97729.66;1648766;85;28061;-86
2022/06/08 09:52:50;;;;;;;6.53;5.55;;;;;;;17.85;100.00;97731.26;1697097;83;28061;-85
2022/06/08 09:55:24;;;;;;;6.33;4.95;;;;;;;17.94;100.00;97737.37;1690214;83;28155;-86
2022/06/08 09:58:13;;;;;;;6.30;5.55;;;;;;;18.00;100.00;97731.40;1695178;83;28097;-86
2022/06/08 10:00:43;;;;;;;6.87;6.15;;;;;;;17.96;100.00;97726.92;1691930;83;28084;-85
2022/06/08 10:03:23;;;;;;;5.80;5.12;;;;;;;17.92;100.00;97726.95;1689282;83;28102;-85
2022/06/08 10:06:03;;;;;;;7.33;5.78;;;;;;;17.94;100.00;97724.97;1687929;83;28117;-87
2022/06/08 10:08:55;;;;;;;6.05;5.42;;;;;;;17.96;100.00;97726.92;1697116;83;28157;-88
2022/06/08 10:11:41;;;;;;;5.97;5.37;;;;;;;18.14;100.00;97724.55;1688163;83;28124;-86
2022/06/08 10:14:14;;;;;;;5.65;5.08;;;;;;;18.31;100.00;97723.48;1694932;83;28072;-89
2022/06/08 10:16:44;;;;;;;6.90;5.30;;;;;;;18.44;100.00;97716.31;1654367;84;28183;-89
2022/06/08 10:19:14;;;;;;;5.15;4.60;;;;;;;18.53;100.00;97728.01;1659491;85;28130;-87
2022/06/08 10:21:44;;;;;;;5.90;4.80;;;;;;;18.71;100.00;97725.13;1682153;83;28075;-85
2022/06/08 10:24:23;;;;;;;3.70;3.30;;;;;;;18.79;100.00;97729.86;1682520;83;28006;-85
2022/06/08 10:26:59;;;;;;;4.20;3.80;;;;;;;18.82;100.00;97721.24;1682520;83;28161;-87
2022/06/08 10:29:43;;;;;;;5.35;4.35;;;;;;;18.78;100.00;97721.58;1683988;83;28109;-87
2022/06/08 10:32:34;;;;;;;6.12;4.58;;;;;;;18.68;100.00;97722.81;1684063;83;28092;-87
2022/06/08 10:35:25;;;;;;;5.15;4.65;;;;;;;18.64;100.00;97722.34;1694300;83;28071;-89
2022/06/08 10:37:51;;;;;;;7.22;4.50;;;;;;;18.64;100.00;97723.67;1680856;83;28163;-87
2022/06/08 10:40:21;;;;;;;5.50;4.90;;;;;;;18.65;100.00;97719.20;1675674;83;28149;-84
2022/06/08 10:42:51;;;;;;;4.75;3.67;;;;;;;18.72;100.00;97713.00;1696584;83;28492;-87
2022/06/08 10:45:26;;;;;;;5.42;4.28;;;;;;;18.87;100.00;97709.11;1692984;83;28138;-85
2022/06/08 10:47:59;;;;;;;4.28;3.87;;;;;;;18.92;100.00;97713.87;1677021;83;28097;-89
2022/06/08 10:50:31;;;;;;;6.70;4.87;;;;;;;18.95;100.00;97708.20;1676682;83;28073;-85
2022/06/08 10:55:37;;;;;;;5.12;4.62;;;;;;;19.06;100.00;97706.46;1675912;83;28122;-85
2022/06/08 10:58:07;;;;;;;3.92;3.52;;;;;;;18.99;100.00;97705.02;1687404;82;28107;-85
2022/06/08 11:00:46;;;;;;;4.25;3.85;;;;;;;18.95;100.00;97705.55;1656032;83;28068;-88
2022/06/08 11:03:36;;;;;;;4.78;3.95;;;;;;;18.94;100.00;97711.36;1660978;83;28023;-87
2022/06/08 11:06:05;;;;;;;4.83;4.33;;;;;;;18.94;100.00;97709.20;1674304;83;28090;-85
2022/06/08 11:08:51;;;;;;;4.12;3.65;;;;;;;18.96;100.00;97707.21;1688576;83;28116;-84
2022/06/08 11:11:37;;;;;;;4.15;3.75;;;;;;;19.01;100.00;97701.70;1671966;83;28080;-84
2022/06/08 11:14:27;;;;;;;3.72;3.37;;;;;;;19.07;100.00;97700.98;1656209;84;28002;-87
2022/06/08 11:16:57;;;;;;;4.45;4.05;;;;;;;19.14;100.00;97701.11;1682479;83;28078;-88
2022/06/08 11:19:24;;;;;;;4.87;3.90;;;;;;;19.26;100.00;97712.09;1694886;83;28172;-85
2022/06/08 11:22:04;;;;;;;4.45;4.03;;;;;;;19.32;100.00;97712.20;1689590;83;28089;-88
2022/06/08 11:24:31;;;;;;;4.47;3.67;;;;;;;19.40;100.00;97704.69;1681786;83;28098;-85
2022/06/08 11:27:13;;;;;;;3.90;3.50;;;;;;;19.50;100.00;97703.45;1691350;83;28067;-89
2022/06/08 11:29:47;;;;;;;4.03;3.47;;;;;;;19.65;100.00;97702.13;1689795;83;28106;-89
2022/06/08 11:32:32;;;;;;;3.62;3.33;;;;;;;19.71;100.00;97700.08;1682766;83;28021;-89
2022/06/08 11:35:11;;;;;;;4.08;3.58;;;;;;;19.74;100.00;97690.94;1626575;85;28173;-89
2022/06/08 11:37:59;;;;;;;3.90;3.52;;;;;;;19.90;100.00;97691.58;1649409;85;28101;-89
2022/06/08 11:40:29;;;;;;;4.00;3.60;;;;;;;20.12;100.00;97692.47;1693859;83;28084;-87
2022/06/08 11:43:15;;;;;;;5.75;4.70;;;;;;;20.11;100.00;97693.98;1691186;83;28140;-89
2022/06/08 11:45:46;;;;;;;4.92;4.42;;;;;;;20.17;100.00;97687.42;1690581;83;28076;-89
2022/06/08 11:48:15;;;;;;;4.40;4.00;;;;;;;20.29;100.00;97694.42;1689832;83;28091;-89
2022/06/08 11:50:58;;;;;;;4.87;4.35;;;;;;;20.23;100.00;97688.52;1686686;83;28077;-84
2022/06/08 11:53:42;;;;;;;3.75;3.45;;;;;;;20.17;100.00;97694.07;1657681;85;28027;-87